createdAt,value
2019-05-21T00:02:01.827Z,80.10
2019-05-21T00:04:30.892Z,80.30
2019-05-21T00:06:59.982Z,80.00
2019-05-21T00:09:29.062Z,80.10
2019-05-21T00:11:58.102Z,80.00
2019-05-21T00:14:27.199Z,80.20
2019-05-21T00:16:56.810Z,80.10
2019-05-21T00:19:26.739Z,79.90
2019-05-21T00:21:55.803Z,80.00
2019-05-21T00:24:24.863Z,80.00
2019-05-21T00:26:54.625Z,80.10
2019-05-21T00:29:59.911Z,80.20
2019-05-21T00:33:04.692Z,80.10
2019-05-21T00:36:09.767Z,80.10
2019-05-21T00:39:14.792Z,80.30
2019-05-21T00:42:01.852Z,80.10
2019-05-21T00:44:34.903Z,80.70
2019-05-21T00:47:05.371Z,80.70
2019-05-21T00:49:35.139Z,81.20
2019-05-21T00:52:08.465Z,81.00
2019-05-21T00:54:36.146Z,80.90
2019-05-21T00:57:06.088Z,81.00
2019-05-21T00:59:35.161Z,81.10
2019-05-21T01:02:04.277Z,81.00
2019-05-21T01:04:34.413Z,81.00
2019-05-21T01:07:03.534Z,81.00
2019-05-21T01:09:32.603Z,80.90
2019-05-21T01:12:01.712Z,81.00
2019-05-21T01:14:31.433Z,80.90
2019-05-21T01:17:00.495Z,81.50
2019-05-21T01:19:29.588Z,81.10
2019-05-21T01:21:59.099Z,81.60
2019-05-21T01:24:28.541Z,81.90
2019-05-21T01:26:57.927Z,81.60
2019-05-21T01:29:26.987Z,81.30
2019-05-21T01:31:56.100Z,81.20
2019-05-21T01:34:25.151Z,81.40
2019-05-21T01:36:54.247Z,81.40
2019-05-21T01:39:23.695Z,81.10
2019-05-21T01:41:53.127Z,81.10
2019-05-21T01:44:23.601Z,81.00
2019-05-21T01:46:52.692Z,81.60
2019-05-21T01:49:21.775Z,81.40
2019-05-21T01:51:50.834Z,81.30
2019-05-21T01:54:19.909Z,81.50
2019-05-21T01:56:49.285Z,81.60
2019-05-21T01:59:18.364Z,81.40
2019-05-21T02:01:47.800Z,82.50
2019-05-21T02:04:16.890Z,81.80
2019-05-21T02:06:49.179Z,82.10
2019-05-21T02:09:17.206Z,82.20
2019-05-21T02:11:46.264Z,82.10
2019-05-21T02:14:15.660Z,82.80
2019-05-21T02:16:44.720Z,82.50
2019-05-21T02:19:13.805Z,82.50
2019-05-21T02:21:42.871Z,82.50
2019-05-21T02:24:11.955Z,82.50
2019-05-21T02:26:41.439Z,82.20
2019-05-21T02:29:10.529Z,82.70
2019-05-21T02:31:39.577Z,82.40
2019-05-21T02:34:08.647Z,82.60
2019-05-21T02:36:37.704Z,82.60
2019-05-21T02:39:08.145Z,82.80
2019-05-21T02:41:37.651Z,82.40
2019-05-21T02:44:07.019Z,82.60
2019-05-21T02:46:36.480Z,82.30
2019-05-21T02:49:05.535Z,83.00
2019-05-21T02:51:34.979Z,82.80
2019-05-21T02:54:04.143Z,82.70
2019-05-21T02:56:33.199Z,82.90
2019-05-21T02:59:02.665Z,83.10
2019-05-21T03:01:42.588Z,83.10
2019-05-21T03:04:14.079Z,83.10
2019-05-21T03:06:43.548Z,83.50
2019-05-21T03:09:12.956Z,83.40
2019-05-21T03:11:42.032Z,83.00
2019-05-21T03:20:54.487Z,83.10
2019-05-21T03:27:04.594Z,83.00
2019-05-21T03:30:27.854Z,84.90
2019-05-21T03:36:38.123Z,83.80
2019-05-21T03:40:01.174Z,85.50
2019-05-21T03:46:11.327Z,84.00
2019-05-21T03:52:21.655Z,84.10
2019-05-21T03:58:31.944Z,84.70
2019-05-21T04:01:55.023Z,84.60
2019-05-21T04:08:05.363Z,84.20
2019-05-21T04:14:31.802Z,84.20
2019-05-21T04:17:07.459Z,83.70
2019-05-21T04:19:38.687Z,83.90
2019-05-21T04:22:12.604Z,84.70
2019-05-21T04:24:41.780Z,84.00
2019-05-21T04:27:15.031Z,84.20
2019-05-21T04:29:44.172Z,84.00
2019-05-21T04:32:13.654Z,83.90
2019-05-21T04:34:42.830Z,83.90
2019-05-21T04:37:17.295Z,83.90
2019-05-21T04:39:44.866Z,83.60
2019-05-21T04:42:13.909Z,84.00
2019-05-21T04:44:45.081Z,83.80
2019-05-21T04:47:21.622Z,84.00
2019-05-21T04:49:52.048Z,83.30
2019-05-21T04:52:22.485Z,83.80
2019-05-21T04:54:53.898Z,84.20
2019-05-21T04:57:23.376Z,84.00
2019-05-21T04:59:52.847Z,84.00
2019-05-21T05:02:21.951Z,84.00
2019-05-21T05:04:52.063Z,83.80
2019-05-21T05:07:28.312Z,83.50
2019-05-21T05:09:53.120Z,83.40
2019-05-21T05:12:28.058Z,83.10
2019-05-21T05:14:58.477Z,83.30
2019-05-21T05:17:27.593Z,83.50
2019-05-21T05:19:58.105Z,83.80
2019-05-21T05:22:27.963Z,83.30
2019-05-21T05:24:57.138Z,83.10
2019-05-21T05:27:28.434Z,83.20
2019-05-21T05:30:04.983Z,83.20
2019-05-21T05:32:34.456Z,82.40
2019-05-21T05:35:03.812Z,82.80
2019-05-21T05:37:43.327Z,82.90
2019-05-21T05:40:07.241Z,82.70
2019-05-21T05:42:36.475Z,82.70
2019-05-21T05:45:06.509Z,82.20
2019-05-21T05:47:44.693Z,82.00
2019-05-21T05:50:26.837Z,82.00
2019-05-21T05:52:55.917Z,82.20
2019-05-21T05:55:29.299Z,81.90
2019-05-21T05:58:14.805Z,82.20
2019-05-21T06:00:43.887Z,82.30
2019-05-21T06:03:12.963Z,81.60
2019-05-21T06:05:42.018Z,82.00
2019-05-21T06:08:11.072Z,82.00
2019-05-21T06:10:40.310Z,82.10
2019-05-21T06:13:09.409Z,82.20
2019-05-21T06:15:38.550Z,81.90
2019-05-21T06:18:07.622Z,81.90
2019-05-21T06:20:37.060Z,81.70
2019-05-21T06:23:06.136Z,81.80
2019-05-21T06:25:35.558Z,82.70
2019-05-21T06:28:10.999Z,81.80
2019-05-21T06:30:40.145Z,82.70
2019-05-21T06:33:09.278Z,81.70
2019-05-21T06:35:42.189Z,82.00
2019-05-21T06:38:17.852Z,82.20
2019-05-21T06:40:42.061Z,81.90
2019-05-21T06:43:11.763Z,81.70
2019-05-21T06:45:40.932Z,81.80
2019-05-21T06:48:15.928Z,81.80
2019-05-21T06:50:45.335Z,82.00
2019-05-21T06:53:14.462Z,82.00
2019-05-21T06:55:43.814Z,81.80
2019-05-21T06:58:13.250Z,81.80
2019-05-21T07:00:42.440Z,81.60
2019-05-21T07:03:11.953Z,81.70
2019-05-21T07:05:57.524Z,82.00
2019-05-21T07:08:12.197Z,81.40
2019-05-21T07:10:41.587Z,81.70
2019-05-21T07:13:10.654Z,81.40
2019-05-21T07:15:40.049Z,81.40
2019-05-21T07:18:09.116Z,81.60
2019-05-21T07:20:38.464Z,81.40
2019-05-21T07:23:08.475Z,80.90
2019-05-21T07:25:37.875Z,81.10
2019-05-21T07:28:07.310Z,80.70
2019-05-21T07:30:37.764Z,81.00
2019-05-21T07:33:07.327Z,80.60
2019-05-21T07:35:37.034Z,80.90
2019-05-21T07:38:09.770Z,81.40
2019-05-21T07:40:39.620Z,81.20
2019-05-21T07:43:09.512Z,81.00
2019-05-21T07:45:38.844Z,80.70
2019-05-21T07:48:07.927Z,80.90
2019-05-21T07:50:37.558Z,81.10
2019-05-21T07:53:06.671Z,81.40
2019-05-21T07:55:38.071Z,81.30
2019-05-21T07:58:07.564Z,81.30
2019-05-21T08:00:36.631Z,81.00
2019-05-21T08:03:05.717Z,81.20
2019-05-21T08:05:34.771Z,80.80
2019-05-21T08:08:04.389Z,80.30
2019-05-21T08:10:33.450Z,80.50
2019-05-21T08:13:02.914Z,80.30
2019-05-21T08:15:31.987Z,80.00
2019-05-21T08:18:01.740Z,80.00
2019-05-21T08:20:31.119Z,79.40
2019-05-21T08:23:00.273Z,79.60
2019-05-21T08:25:29.323Z,79.70
2019-05-21T08:27:58.666Z,79.40
2019-05-21T08:30:27.740Z,79.30
2019-05-21T08:32:59.258Z,79.80
2019-05-21T08:35:28.315Z,79.90
2019-05-21T08:37:58.779Z,80.10
2019-05-21T08:40:27.865Z,80.40
2019-05-21T08:42:57.356Z,80.20
2019-05-21T08:45:26.770Z,80.40
2019-05-21T08:47:56.151Z,80.40
2019-05-21T08:50:25.568Z,80.60
2019-05-21T08:52:54.627Z,80.90
2019-05-21T08:55:23.827Z,81.00
2019-05-21T08:58:06.537Z,80.90
2019-05-21T09:00:24.089Z,80.70
2019-05-21T09:02:53.532Z,80.40
2019-05-21T09:05:22.942Z,80.80
2019-05-21T09:07:54.061Z,80.90
2019-05-21T09:10:23.987Z,80.70
2019-05-21T09:12:53.373Z,80.60
2019-05-21T09:15:22.745Z,80.10
2019-05-21T09:17:51.795Z,80.30
2019-05-21T09:20:21.209Z,80.60
2019-05-21T09:22:50.578Z,80.90
2019-05-21T09:25:19.652Z,80.60
2019-05-21T09:27:49.165Z,80.40
2019-05-21T09:30:19.375Z,80.30
2019-05-21T09:32:48.824Z,80.00
2019-05-21T09:35:17.896Z,80.10
2019-05-21T09:37:47.634Z,80.40
2019-05-21T09:40:18.609Z,80.50
2019-05-21T09:42:47.837Z,80.50
2019-05-21T09:45:17.019Z,80.70
2019-05-21T09:47:46.374Z,80.20
2019-05-21T09:50:15.718Z,80.00
2019-05-21T09:52:44.761Z,80.50
2019-05-21T09:55:13.924Z,80.50
2019-05-21T09:57:51.128Z,80.50
2019-05-21T10:00:52.871Z,80.70
2019-05-21T10:03:23.976Z,80.60
2019-05-21T10:05:53.458Z,80.40
2019-05-21T10:08:23.485Z,80.60
2019-05-21T10:10:53.032Z,80.90
2019-05-21T10:13:22.100Z,80.80
2019-05-21T10:15:51.554Z,80.50
2019-05-21T10:18:20.619Z,80.30
2019-05-21T10:20:50.092Z,80.30
2019-05-21T10:23:20.086Z,80.20
2019-05-21T10:25:49.511Z,80.20
2019-05-21T10:28:18.642Z,80.10
2019-05-21T10:30:48.164Z,79.60
2019-05-21T10:33:17.601Z,79.60
2019-05-21T10:35:46.784Z,80.00
2019-05-21T10:38:16.526Z,80.20
2019-05-21T10:40:45.749Z,80.20
2019-05-21T10:43:15.739Z,80.10
2019-05-21T10:45:45.310Z,79.80
2019-05-21T10:48:14.724Z,80.00
2019-05-21T10:50:44.163Z,79.80
2019-05-21T10:53:13.307Z,79.80
2019-05-21T10:55:42.445Z,80.40
2019-05-21T10:58:11.928Z,79.50
2019-05-21T11:00:41.466Z,79.60
2019-05-21T11:03:20.667Z,79.60
2019-05-21T11:06:07.392Z,79.70
2019-05-21T11:08:25.183Z,80.10
2019-05-21T11:10:54.831Z,80.20
2019-05-21T11:13:24.199Z,81.30
2019-05-21T11:15:54.015Z,80.20
2019-05-21T11:18:25.364Z,79.70
2019-05-21T11:20:54.798Z,80.40
2019-05-21T11:23:23.883Z,80.10
2019-05-21T11:25:54.202Z,78.90
2019-05-21T11:28:42.386Z,78.30
2019-05-21T11:31:11.857Z,78.10
2019-05-21T11:33:41.785Z,77.70
2019-05-21T11:36:11.573Z,77.90
2019-05-21T11:38:40.669Z,77.90
2019-05-21T11:41:10.086Z,78.30
2019-05-21T11:43:39.679Z,77.70
2019-05-21T11:46:09.395Z,77.90
2019-05-21T11:48:38.812Z,77.90
2019-05-21T11:51:07.897Z,77.50
2019-05-21T11:53:37.053Z,77.50
2019-05-21T11:56:06.666Z,77.10
2019-05-21T11:58:39.837Z,77.00
2019-05-21T12:01:06.754Z,76.10
2019-05-21T12:03:35.832Z,75.90
2019-05-21T12:06:05.488Z,76.40
2019-05-21T12:08:34.673Z,76.30
2019-05-21T12:11:03.759Z,77.00
2019-05-21T12:13:32.840Z,77.80
2019-05-21T12:16:02.728Z,77.90
2019-05-21T12:18:32.181Z,78.10
2019-05-21T12:21:01.310Z,78.40
2019-05-21T12:23:31.133Z,78.20
2019-05-21T12:26:00.443Z,78.40
2019-05-21T12:28:33.177Z,78.50
2019-05-21T12:31:02.977Z,78.80
2019-05-21T12:33:35.033Z,78.90
2019-05-21T12:36:03.837Z,79.10
2019-05-21T12:38:32.906Z,79.40
2019-05-21T12:41:03.046Z,79.70
2019-05-21T12:43:32.143Z,80.30
2019-05-21T12:46:01.512Z,80.30
2019-05-21T12:48:30.647Z,80.20
2019-05-21T12:50:59.820Z,80.10
2019-05-21T12:53:29.194Z,79.80
2019-05-21T12:55:58.951Z,80.20
2019-05-21T12:58:28.737Z,80.10
2019-05-21T13:00:58.080Z,79.80
2019-05-21T13:03:27.582Z,80.00
2019-05-21T13:05:56.743Z,80.40
2019-05-21T13:08:25.909Z,81.10
2019-05-21T13:10:55.046Z,80.70
2019-05-21T13:13:24.168Z,80.50
2019-05-21T13:15:53.881Z,80.70
2019-05-21T13:18:23.327Z,80.70
2019-05-21T13:20:53.400Z,80.50
2019-05-21T13:23:22.467Z,80.50
2019-05-21T13:25:54.284Z,80.80
2019-05-21T13:28:25.721Z,81.10
2019-05-21T13:30:54.919Z,80.90
2019-05-21T13:33:39.982Z,80.70
2019-05-21T13:36:15.715Z,81.10
2019-05-21T13:38:51.359Z,80.90
2019-05-21T13:41:20.782Z,80.80
2019-05-21T13:43:49.894Z,80.80
2019-05-21T13:46:19.562Z,80.90
2019-05-21T13:48:48.678Z,81.00
2019-05-21T13:51:17.947Z,81.00
2019-05-21T13:53:47.240Z,80.60
2019-05-21T13:56:19.458Z,80.60
2019-05-21T13:58:55.828Z,80.50
2019-05-21T14:01:40.257Z,80.50
2019-05-21T14:04:02.587Z,80.40
2019-05-21T14:06:43.763Z,80.70
2019-05-21T14:09:20.389Z,80.70
2019-05-21T14:11:50.483Z,80.70
2019-05-21T14:14:25.067Z,80.50
2019-05-21T14:16:54.184Z,80.80
2019-05-21T14:19:23.787Z,80.90
2019-05-21T14:21:53.992Z,80.80
2019-05-21T14:24:25.595Z,80.40
2019-05-21T14:27:01.344Z,80.90
2019-05-21T14:29:31.016Z,80.50
2019-05-21T14:32:09.166Z,80.30
2019-05-21T14:34:38.562Z,80.40
2019-05-21T14:37:07.954Z,80.30
2019-05-21T14:39:38.642Z,80.20
2019-05-21T14:42:08.678Z,80.50
2019-05-21T14:44:38.397Z,80.50
2019-05-21T14:47:08.134Z,80.20
2019-05-21T14:49:37.305Z,80.60
2019-05-21T14:52:07.192Z,80.70
2019-05-21T14:54:36.358Z,80.50
2019-05-21T14:57:12.117Z,80.10
2019-05-21T14:59:42.119Z,80.30
2019-05-21T15:02:20.480Z,80.70
2019-05-21T15:04:50.065Z,80.60
2019-05-21T15:07:19.588Z,80.10
2019-05-21T15:09:53.221Z,80.70
2019-05-21T15:12:20.996Z,80.80
2019-05-21T15:14:50.534Z,81.30
2019-05-21T15:17:20.158Z,81.10
2019-05-21T15:19:52.343Z,81.10
2019-05-21T15:22:21.796Z,80.80
2019-05-21T15:24:50.968Z,81.00
2019-05-21T15:27:20.089Z,81.20
2019-05-21T15:29:49.594Z,81.40
2019-05-21T15:32:19.086Z,81.60
2019-05-21T15:34:48.363Z,81.30
2019-05-21T15:37:21.457Z,81.30
2019-05-21T15:39:50.884Z,81.50
2019-05-21T15:42:20.695Z,81.40
2019-05-21T15:44:49.771Z,81.30
2019-05-21T15:47:18.878Z,81.40
2019-05-21T15:49:48.115Z,81.70
2019-05-21T15:52:18.682Z,81.80
2019-05-21T15:54:47.851Z,81.60
2019-05-21T15:57:16.903Z,81.70
2019-05-21T15:59:46.735Z,81.50
2019-05-21T16:02:16.355Z,81.60
2019-05-21T16:04:45.516Z,82.10
2019-05-21T16:07:15.794Z,81.50
2019-05-21T16:09:48.451Z,81.60
2019-05-21T16:12:17.714Z,81.60
2019-05-21T16:14:47.422Z,81.50
2019-05-21T16:17:20.061Z,81.60
2019-05-21T16:19:49.177Z,81.50
2019-05-21T16:22:19.039Z,81.30
2019-05-21T16:24:48.180Z,81.70
2019-05-21T16:27:17.388Z,81.60
2019-05-21T16:29:48.368Z,81.80
2019-05-21T16:32:18.138Z,81.70
2019-05-21T16:34:47.248Z,81.60
2019-05-21T16:37:17.571Z,81.70
2019-05-21T16:39:46.966Z,81.80
2019-05-21T16:42:16.385Z,81.80
2019-05-21T16:44:45.728Z,81.70
2019-05-21T16:47:15.184Z,81.80
2019-05-21T16:49:44.244Z,81.50
2019-05-21T16:52:16.027Z,81.60
2019-05-21T16:54:45.073Z,81.60
2019-05-21T16:57:17.541Z,81.60
2019-05-21T16:59:52.907Z,81.70
2019-05-21T17:02:29.565Z,81.70
2019-05-21T17:04:58.711Z,82.00
2019-05-21T17:07:32.030Z,82.00
2019-05-21T17:10:01.529Z,81.90
2019-05-21T17:12:32.001Z,82.00
2019-05-21T17:15:01.591Z,81.80
2019-05-21T17:17:30.732Z,81.80
2019-05-21T17:20:00.652Z,82.00
2019-05-21T17:22:30.650Z,81.70
2019-05-21T17:24:59.997Z,81.90
2019-05-21T17:27:29.449Z,81.60
2019-05-21T17:29:58.629Z,81.60
2019-05-21T17:32:28.079Z,81.70
2019-05-21T17:34:57.485Z,81.90
2019-05-21T17:37:28.309Z,82.00
2019-05-21T17:39:57.395Z,82.20
2019-05-21T17:42:26.978Z,82.20
2019-05-21T17:44:56.085Z,81.90
2019-05-21T17:47:26.325Z,81.60
2019-05-21T17:49:55.540Z,81.80
2019-05-21T17:52:24.719Z,81.70
2019-05-21T17:54:57.090Z,81.70
2019-05-21T17:57:26.384Z,81.70
2019-05-21T17:59:55.842Z,82.60
2019-05-21T18:02:27.080Z,82.20
2019-05-21T18:04:57.751Z,82.20
2019-05-21T18:07:30.158Z,82.80
2019-05-21T18:10:00.338Z,82.20
2019-05-21T18:12:32.296Z,82.20
2019-05-21T18:15:02.065Z,82.10
2019-05-21T18:17:33.709Z,81.90
2019-05-21T18:20:04.266Z,82.00
2019-05-21T18:22:34.695Z,82.10
2019-05-21T18:25:04.882Z,81.90
2019-05-21T18:27:34.841Z,82.20
2019-05-21T18:30:07.950Z,82.10
2019-05-21T18:32:37.388Z,82.00
2019-05-21T18:35:08.983Z,82.10
2019-05-21T18:37:39.143Z,82.90
2019-05-21T18:40:11.651Z,82.30
2019-05-21T18:42:41.024Z,82.40
2019-05-21T18:45:10.577Z,82.20
2019-05-21T18:47:39.667Z,82.20
2019-05-21T18:50:09.957Z,82.30
2019-05-21T18:52:40.331Z,82.10
2019-05-21T18:55:10.728Z,82.20
2019-05-21T18:57:40.649Z,82.40
2019-05-21T19:00:10.583Z,82.50
2019-05-21T19:02:39.973Z,82.40
2019-05-21T19:05:09.655Z,82.20
2019-05-21T19:07:39.850Z,82.40
2019-05-21T19:10:10.306Z,82.50
2019-05-21T19:12:39.885Z,82.40
2019-05-21T19:15:11.314Z,82.50
2019-05-21T19:17:40.849Z,82.60
2019-05-21T19:20:10.490Z,82.50
2019-05-21T19:22:39.724Z,82.90
2019-05-21T19:25:09.708Z,83.10
2019-05-21T19:27:39.645Z,82.90
2019-05-21T19:30:09.667Z,83.50
2019-05-21T19:32:38.986Z,82.50
2019-05-21T19:35:08.897Z,82.60
2019-05-21T19:37:38.338Z,82.50
2019-05-21T19:40:08.442Z,82.30
2019-05-21T19:42:52.244Z,82.20
2019-05-21T19:45:10.436Z,82.40
2019-05-21T19:47:39.665Z,82.80
2019-05-21T19:50:09.323Z,82.80
2019-05-21T19:52:38.898Z,82.70
2019-05-21T19:55:08.607Z,82.60
2019-05-21T19:57:38.263Z,82.70
2019-05-21T20:00:08.583Z,82.80
2019-05-21T20:02:38.538Z,82.80
2019-05-21T20:05:14.900Z,82.90
2019-05-21T20:07:44.802Z,82.90
2019-05-21T20:10:15.208Z,82.70
2019-05-21T20:12:46.775Z,82.70
2019-05-21T20:15:20.153Z,82.90
2019-05-21T20:18:06.215Z,83.10
2019-05-21T20:20:23.953Z,83.10
2019-05-21T20:22:54.827Z,82.90
2019-05-21T20:25:26.824Z,83.60
2019-05-21T20:27:57.193Z,83.30
2019-05-21T20:30:27.798Z,83.60
2019-05-21T20:32:57.542Z,83.80
2019-05-21T20:35:30.042Z,83.80
2019-05-21T20:37:59.404Z,83.50
2019-05-21T20:40:29.391Z,84.30
2019-05-21T20:42:58.838Z,83.40
2019-05-21T20:45:28.636Z,83.30
2019-05-21T20:47:58.451Z,83.20
2019-05-21T20:50:28.276Z,83.30
2019-05-21T20:52:58.160Z,83.10
2019-05-21T20:55:27.666Z,82.90
2019-05-21T20:57:57.384Z,82.80
2019-05-21T21:00:40.925Z,82.80
2019-05-21T21:03:12.118Z,83.00
2019-05-21T21:05:41.375Z,83.20
2019-05-21T21:08:10.667Z,84.00
2019-05-21T21:10:40.721Z,83.20
2019-05-21T21:13:11.379Z,83.00
2019-05-21T21:15:41.735Z,82.90
2019-05-21T21:18:11.842Z,83.30
2019-05-21T21:20:41.466Z,83.50
2019-05-21T21:23:11.195Z,83.20
2019-05-21T21:25:40.301Z,83.30
2019-05-21T21:28:09.472Z,83.80
2019-05-21T21:30:38.975Z,83.30
2019-05-21T21:33:10.162Z,83.40
2019-05-21T21:35:40.053Z,83.40
2019-05-21T21:38:11.207Z,83.40
2019-05-21T21:40:40.571Z,83.20
2019-05-21T21:43:10.093Z,83.40
2019-05-21T21:45:39.194Z,83.10
2019-05-21T21:48:10.862Z,83.20
2019-05-21T21:50:41.274Z,83.40
2019-05-21T21:53:15.461Z,83.30
2019-05-21T21:55:44.533Z,83.30
2019-05-21T21:58:14.654Z,83.50
2019-05-21T22:01:31.106Z,83.60
2019-05-21T22:04:04.535Z,83.80
2019-05-21T22:06:37.644Z,84.20
2019-05-21T22:09:11.996Z,83.10
2019-05-21T22:11:42.446Z,83.50
2019-05-21T22:14:12.184Z,83.10
2019-05-21T22:16:41.892Z,83.40
2019-05-21T22:19:12.394Z,83.60
2019-05-21T22:21:41.540Z,83.60
2019-05-21T22:24:10.867Z,83.60
2019-05-21T22:26:40.211Z,83.70
2019-05-21T22:29:10.181Z,83.40
2019-05-21T22:31:39.358Z,83.30
2019-05-21T22:34:08.421Z,83.30
2019-05-21T22:36:37.574Z,83.50
2019-05-21T22:39:12.516Z,83.50
2019-05-21T22:41:42.059Z,83.70
2019-05-21T22:44:11.126Z,84.10
2019-05-21T22:46:40.217Z,84.40
2019-05-21T22:49:10.724Z,84.00
2019-05-21T22:51:40.181Z,84.20
2019-05-21T22:54:09.549Z,84.30
2019-05-21T22:56:38.680Z,84.40
2019-05-21T22:59:08.088Z,84.30
2019-05-21T23:01:38.195Z,84.30
2019-05-21T23:04:08.139Z,84.20
2019-05-21T23:06:37.641Z,84.30
2019-05-21T23:09:08.810Z,84.40
2019-05-21T23:11:38.283Z,84.90
2019-05-21T23:14:07.376Z,84.30
2019-05-21T23:16:36.465Z,83.90
2019-05-21T23:19:06.876Z,83.80
2019-05-21T23:21:40.424Z,84.10
2019-05-21T23:24:15.302Z,84.40
2019-05-21T23:26:44.698Z,84.20
2019-05-21T23:29:13.784Z,84.00
2019-05-21T23:31:43.020Z,83.80
2019-05-21T23:34:14.023Z,84.60
2019-05-21T23:36:44.566Z,84.00
2019-05-21T23:39:21.143Z,84.20
2019-05-21T23:41:51.097Z,83.70
2019-05-21T23:44:20.513Z,84.10
2019-05-21T23:46:49.893Z,84.20
2019-05-21T23:49:19.043Z,84.30
2019-05-21T23:51:48.989Z,84.30
2019-05-21T23:54:18.488Z,84.10
2019-05-21T23:56:47.621Z,83.90
2019-05-21T23:59:17.194Z,83.90
